Time;durP1;ratioP1;P1;durP2;ratioP2;P2;SDS_P1;SDS_P2;PMS_P1;PMS_P2;Temp;Humidity;BMP_temperature;BMP_pressure;BME280_temperature;BME280_humidity;BME280_pressure;Samples;Min_cycle;Max_cycle;Signal;HPM_P1;HPM_P2
2023/05/27 00:02:13;;;;;;;8.30;5.75;;;;;;;14.16;100.00;98242.75;1701810;75;724316;-73
2023/05/27 00:04:43;;;;;;;9.60;5.50;;;;;;;14.46;100.00;98248.03;1710635;75;673856;-73
2023/05/27 00:07:14;;;;;;;4.65;3.70;;;;;;;14.54;100.00;98248.38;1701783;75;765206;-74
2023/05/27 00:09:44;;;;;;;3.55;3.25;;;;;;;14.45;100.00;98249.28;1710645;75;664134;-72
2023/05/27 00:12:15;;;;;;;3.45;3.15;;;;;;;14.46;100.00;98240.53;1701751;75;734016;-73
2023/05/27 00:14:45;;;;;;;2.50;2.30;;;;;;;14.48;100.00;98248.31;1711286;75;668894;-72
2023/05/27 00:17:19;;;;;;;2.75;2.35;;;;;;;14.50;100.00;98254.06;1701873;75;756875;-74
2023/05/27 00:19:50;;;;;;;2.40;2.20;;;;;;;14.43;100.00;98246.25;1710379;75;669672;-72
2023/05/27 00:22:21;;;;;;;3.35;2.80;;;;;;;14.38;100.00;98242.22;1701879;75;740000;-72
2023/05/27 00:24:51;;;;;;;3.30;2.70;;;;;;;14.36;100.00;98247.47;1711162;75;672931;-72
2023/05/27 00:27:22;;;;;;;3.20;2.25;;;;;;;14.30;100.00;98238.38;1701092;75;754672;-73
2023/05/27 00:29:52;;;;;;;2.55;2.20;;;;;;;14.32;100.00;98244.16;1710197;75;667416;-70
2023/05/27 00:32:25;;;;;;;2.75;2.45;;;;;;;14.26;100.00;98241.38;1701164;75;746655;-71
2023/05/27 00:34:55;;;;;;;2.40;2.20;;;;;;;14.26;100.00;98244.13;1710638;75;672756;-72
2023/05/27 00:37:25;;;;;;;2.80;2.15;;;;;;;14.25;100.00;98242.59;1701499;75;756500;-72
2023/05/27 00:39:55;;;;;;;4.95;4.45;;;;;;;14.10;100.00;98247.47;1710956;75;677225;-74
2023/05/27 00:42:26;;;;;;;4.35;3.95;;;;;;;14.00;100.00;98235.84;1702584;75;748281;-74
2023/05/27 00:44:56;;;;;;;3.65;3.30;;;;;;;14.07;100.00;98242.94;1712182;75;667936;-74
2023/05/27 00:47:32;;;;;;;4.35;3.60;;;;;;;13.80;100.00;98239.38;1703615;75;737582;-70
2023/05/27 00:50:03;;;;;;;4.90;4.10;;;;;;;13.82;100.00;98228.63;1705161;75;672619;-69
2023/05/27 00:52:34;;;;;;;7.00;4.30;;;;;;;13.74;100.00;98235.06;1715056;75;713859;-72
2023/05/27 00:55:05;;;;;;;4.80;4.30;;;;;;;13.67;100.00;98235.47;1705984;75;670654;-71
2023/05/27 00:57:41;;;;;;;4.25;3.85;;;;;;;13.57;100.00;98234.88;1712505;75;679850;-72
2023/05/27 01:00:14;;;;;;;4.30;3.90;;;;;;;13.41;100.00;98233.41;1703987;75;683130;-72
2023/05/27 01:02:47;;;;;;;4.60;3.90;;;;;;;13.50;100.00;98235.28;1711362;75;692052;-74
2023/05/27 01:05:21;;;;;;;5.90;4.00;;;;;;;13.36;100.00;98232.09;1702836;75;669164;-74
2023/05/27 01:08:21;;;;;;;4.50;3.70;;;;;;;13.44;100.00;98232.44;1710501;75;673678;-73
2023/05/27 01:10:55;;;;;;;5.50;4.05;;;;;;;13.26;100.00;98232.69;1701536;75;749255;-71
2023/05/27 01:13:38;;;;;;;4.70;4.00;;;;;;;13.33;100.00;98226.81;1710864;75;673638;-71
2023/05/27 01:16:14;;;;;;;3.75;3.25;;;;;;;13.38;100.00;98220.63;1701417;75;751561;-73
2023/05/27 01:18:48;;;;;;;3.50;2.80;;;;;;;13.33;100.00;98224.81;1702866;75;671398;-68
2023/05/27 01:21:19;;;;;;;3.10;2.70;;;;;;;13.21;100.00;98221.13;1710823;75;670541;-73
2023/05/27 01:23:55;;;;;;;4.30;3.10;;;;;;;13.17;100.00;98226.06;1702947;75;668019;-70
2023/05/27 01:26:25;;;;;;;3.05;2.40;;;;;;;13.12;100.00;98218.50;1710566;75;685098;-73
2023/05/27 01:28:55;;;;;;;3.20;2.70;;;;;;;13.04;100.00;98231.16;1702491;75;674741;-71
2023/05/27 01:31:32;;;;;;;3.60;3.00;;;;;;;12.96;100.00;98224.50;1710758;75;683214;-72
2023/05/27 01:34:06;;;;;;;6.50;5.80;;;;;;;12.48;100.00;98233.03;1702829;75;676452;-71
2023/05/27 01:36:45;;;;;;;7.10;5.70;;;;;;;12.73;100.00;98215.94;1710663;75;677526;-74
2023/05/27 01:39:19;;;;;;;5.30;4.80;;;;;;;12.78;100.00;98212.53;1701798;75;738461;-73
2023/05/27 01:41:50;;;;;;;3.80;3.40;;;;;;;12.74;100.00;98211.97;1709169;75;783356;-72
2023/05/27 01:44:22;;;;;;;9.95;7.20;;;;;;;12.16;100.00;98216.28;1701676;75;747576;-72
2023/05/27 01:46:52;;;;;;;6.20;5.60;;;;;;;12.56;100.00;98209.44;1710210;75;668224;-72
2023/05/27 01:49:22;;;;;;;7.85;5.70;;;;;;;12.27;100.00;98199.25;1702103;75;737813;-71
2023/05/27 01:51:52;;;;;;;8.25;7.15;;;;;;;12.15;100.00;98212.03;1710364;75;677008;-73
2023/05/27 01:54:25;;;;;;;5.30;4.80;;;;;;;12.34;100.00;98207.09;1702216;75;742144;-73
2023/05/27 01:56:56;;;;;;;4.50;4.05;;;;;;;12.36;100.00;98191.66;1710337;75;687150;-71
2023/05/27 01:59:26;;;;;;;4.60;3.70;;;;;;;12.43;100.00;98187.00;1701112;75;744508;-74
2023/05/27 02:01:56;;;;;;;4.40;3.30;;;;;;;12.25;100.00;98196.97;1710270;75;671042;-72
2023/05/27 02:04:26;;;;;;;8.30;7.40;;;;;;;12.00;100.00;98189.28;1701266;75;740520;-72
2023/05/27 02:06:56;;;;;;;7.05;5.75;;;;;;;12.01;100.00;98186.06;1710846;75;673848;-72
2023/05/27 02:09:29;;;;;;;6.00;5.40;;;;;;;12.21;100.00;98188.16;1702126;75;728044;-72
2023/05/27 02:11:59;;;;;;;5.00;4.30;;;;;;;12.15;100.00;98193.56;1710561;75;666666;-72
2023/05/27 02:14:30;;;;;;;4.00;3.60;;;;;;;12.14;100.00;98180.31;1701578;75;746761;-70
2023/05/27 02:17:03;;;;;;;4.50;3.55;;;;;;;12.14;100.00;98189.28;1710365;75;674722;-71
2023/05/27 02:19:33;;;;;;;3.90;3.35;;;;;;;12.12;100.00;98182.75;1701419;75;745431;-70
2023/05/27 02:22:04;;;;;;;3.20;2.85;;;;;;;12.07;100.00;98183.41;1710600;75;669481;-74
2023/05/27 02:24:36;;;;;;;3.90;3.30;;;;;;;11.93;100.00;98191.19;1701690;75;754237;-74
2023/05/27 02:27:08;;;;;;;3.60;3.10;;;;;;;11.90;100.00;98185.88;1710637;75;668440;-71
2023/05/27 02:29:38;;;;;;;3.50;3.00;;;;;;;11.97;100.00;98187.50;1701365;75;756281;-72
2023/05/27 02:32:09;;;;;;;3.50;2.75;;;;;;;11.84;100.00;98179.50;1710413;75;674472;-71
2023/05/27 02:34:40;;;;;;;3.25;2.90;;;;;;;11.85;100.00;98186.50;1701457;75;741328;-71
2023/05/27 02:37:11;;;;;;;3.40;2.70;;;;;;;11.85;100.00;98181.78;1710320;75;682677;-72
2023/05/27 02:39:44;;;;;;;2.90;2.60;;;;;;;11.80;100.00;98179.69;1701389;75;743482;-71
2023/05/27 02:42:14;;;;;;;2.60;2.40;;;;;;;11.70;100.00;98183.75;1709777;75;674223;-71
2023/05/27 02:44:45;;;;;;;3.80;3.35;;;;;;;11.70;100.00;98183.75;1701665;75;742217;-71
2023/05/27 02:47:15;;;;;;;3.60;3.00;;;;;;;11.69;100.00;98188.47;1709520;75;686482;-69
2023/05/27 02:49:45;;;;;;;2.75;2.45;;;;;;;11.68;100.00;98180.72;1701836;75;738659;-74
2023/05/27 02:52:15;;;;;;;3.80;3.05;;;;;;;11.65;100.00;98181.66;1709990;75;670411;-70
2023/05/27 02:54:48;;;;;;;3.95;3.10;;;;;;;11.52;100.00;98179.94;1700515;75;743467;-72
2023/05/27 02:57:18;;;;;;;2.70;2.40;;;;;;;11.56;100.00;98187.97;1709764;75;668625;-70
2023/05/27 02:59:49;;;;;;;4.60;3.70;;;;;;;11.60;100.00;98185.06;1701471;75;758466;-71
2023/05/27 03:02:19;;;;;;;4.00;3.50;;;;;;;11.50;100.00;98192.59;1709567;75;675590;-72
2023/05/27 03:04:49;;;;;;;3.35;3.00;;;;;;;11.50;100.00;98182.38;1701364;75;758115;-70
2023/05/27 03:07:19;;;;;;;4.10;3.15;;;;;;;11.54;100.00;98186.91;1709939;75;676262;-73
2023/05/27 03:09:52;;;;;;;3.20;2.90;;;;;;;11.48;100.00;98189.56;1701312;75;748198;-71
2023/05/27 03:12:22;;;;;;;2.80;2.60;;;;;;;11.50;100.00;98196.09;1710015;75;679422;-73
2023/05/27 03:14:52;;;;;;;3.00;2.70;;;;;;;11.40;100.00;98194.66;1700958;75;750012;-71
2023/05/27 03:17:23;;;;;;;3.40;2.70;;;;;;;11.27;100.00;98194.88;1709923;75;670442;-72
2023/05/27 03:19:54;;;;;;;3.35;3.05;;;;;;;11.27;100.00;98192.13;1701281;75;743560;-71
2023/05/27 03:22:24;;;;;;;5.25;4.75;;;;;;;11.05;100.00;98192.41;1709467;75;726212;-72
2023/05/27 03:24:57;;;;;;;7.30;6.20;;;;;;;11.07;100.00;98200.19;1701936;75;736333;-73
2023/05/27 03:27:27;;;;;;;7.55;6.50;;;;;;;10.88;100.00;98205.00;1710577;75;672055;-72
2023/05/27 03:29:57;;;;;;;5.85;5.05;;;;;;;11.02;100.00;98201.56;1701275;75;772921;-72
2023/05/27 03:32:27;;;;;;;5.25;4.70;;;;;;;11.10;100.00;98201.97;1710680;75;675187;-71
2023/05/27 03:34:57;;;;;;;4.05;3.60;;;;;;;11.06;100.00;98196.69;1701616;75;752195;-72
2023/05/27 03:37:28;;;;;;;4.20;3.80;;;;;;;11.11;100.00;98200.00;1710348;75;675056;-73
2023/05/27 03:40:00;;;;;;;3.35;3.00;;;;;;;11.08;100.00;98193.47;1701884;75;748019;-74
2023/05/27 03:42:31;;;;;;;4.10;3.60;;;;;;;10.96;100.00;98197.94;1710650;75;672233;-71
2023/05/27 03:45:01;;;;;;;7.50;5.75;;;;;;;10.97;100.00;98190.50;1701573;75;749601;-72
2023/05/27 03:47:31;;;;;;;4.45;4.05;;;;;;;11.09;100.00;98205.97;1711073;75;684092;-72
2023/05/27 03:50:01;;;;;;;4.75;3.85;;;;;;;11.06;100.00;98196.69;1703274;75;723065;-73
2023/05/27 03:52:31;;;;;;;4.90;4.30;;;;;;;11.01;100.00;98199.28;1711859;75;676209;-74
2023/05/27 03:55:04;;;;;;;6.00;5.40;;;;;;;10.99;100.00;98197.03;1702897;75;748545;-72
2023/05/27 03:57:34;;;;;;;4.90;4.10;;;;;;;11.12;100.00;98198.78;1711572;75;675083;-70
2023/05/27 04:00:06;;;;;;;4.00;3.60;;;;;;;11.16;100.00;98204.84;1702246;75;752504;-72
2023/05/27 04:02:37;;;;;;;4.80;4.10;;;;;;;11.08;100.00;98212.66;1710415;75;681700;-72
2023/05/27 04:05:08;;;;;;;4.95;3.45;;;;;;;11.21;100.00;98210.44;1701854;75;742679;-72
2023/05/27 04:07:38;;;;;;;3.60;3.15;;;;;;;11.15;100.00;98219.78;1710283;75;725994;-74
2023/05/27 04:10:12;;;;;;;3.45;3.15;;;;;;;11.26;100.00;98215.28;1701313;75;748910;-69
2023/05/27 04:12:43;;;;;;;5.00;4.00;;;;;;;11.22;100.00;98219.44;1710773;75;669385;-72
2023/05/27 04:15:14;;;;;;;4.15;3.75;;;;;;;11.26;100.00;98220.78;1701092;75;746280;-72
2023/05/27 04:17:44;;;;;;;7.10;5.90;;;;;;;11.13;100.00;98219.47;1710418;75;678518;-70
2023/05/27 04:20:16;;;;;;;7.80;6.45;;;;;;;11.23;100.00;98221.72;1702243;75;731619;-70
2023/05/27 04:22:47;;;;;;;6.40;5.50;;;;;;;11.34;100.00;98229.41;1710418;75;683014;-72
2023/05/27 04:25:19;;;;;;;7.20;5.30;;;;;;;11.37;100.00;98225.72;1701355;75;747674;-72
2023/05/27 04:27:50;;;;;;;5.30;4.30;;;;;;;11.42;100.00;98219.59;1710940;75;682306;-73
2023/05/27 04:30:20;;;;;;;4.85;4.25;;;;;;;11.43;100.00;98221.13;1700954;75;783199;-71
2023/05/27 04:32:50;;;;;;;5.10;4.50;;;;;;;11.54;100.00;98222.56;1710562;75;687476;-71
2023/05/27 04:35:21;;;;;;;5.50;4.95;;;;;;;11.44;100.00;98221.88;1701072;75;749417;-72
2023/05/27 04:37:52;;;;;;;5.80;4.90;;;;;;;11.45;100.00;98218.66;1710379;75;670128;-70
2023/05/27 04:40:24;;;;;;;7.90;6.65;;;;;;;11.57;100.00;98222.41;1701127;75;751017;-72
2023/05/27 04:42:55;;;;;;;7.30;5.00;;;;;;;11.76;100.00;98214.00;1708500;75;865783;-71
2023/05/27 04:45:26;;;;;;;6.15;4.95;;;;;;;11.81;100.00;98216.09;1701211;75;741548;-71
2023/05/27 04:47:57;;;;;;;5.10;4.60;;;;;;;11.85;100.00;98213.94;1710366;75;674512;-70
2023/05/27 04:50:27;;;;;;;6.00;4.60;;;;;;;11.91;100.00;98218.34;1702086;75;757097;-73
2023/05/27 04:52:58;;;;;;;7.85;6.75;;;;;;;11.85;100.00;98217.44;1712729;75;673106;-71
2023/05/27 04:55:31;;;;;;;7.85;5.85;;;;;;;12.04;100.00;98217.31;1703152;75;755897;-72
2023/05/27 04:58:03;;;;;;;6.80;6.10;;;;;;;12.07;100.00;98217.09;1713183;75;672512;-71
2023/05/27 05:00:49;;;;;;;7.00;6.30;;;;;;;12.21;100.00;98221.09;1703688;75;743504;-70
2023/05/27 05:03:20;;;;;;;5.00;4.50;;;;;;;12.38;100.00;98217.88;1703657;75;680345;-74
2023/05/27 05:05:53;;;;;;;4.80;4.30;;;;;;;12.47;100.00;98215.03;1711485;75;676382;-71
2023/05/27 05:08:24;;;;;;;3.55;3.20;;;;;;;12.57;100.00;98214.44;1702117;75;683417;-69
2023/05/27 05:10:56;;;;;;;3.30;3.00;;;;;;;12.64;100.00;98213.31;1710642;75;682027;-69
2023/05/27 05:13:28;;;;;;;4.90;4.20;;;;;;;12.69;100.00;98222.88;1702739;75;677369;-73
2023/05/27 05:15:59;;;;;;;4.20;3.50;;;;;;;12.88;100.00;98223.41;1710420;75;674143;-72
2023/05/27 05:18:29;;;;;;;4.85;3.80;;;;;;;13.00;100.00;98227.81;1702446;75;670002;-71
2023/05/27 05:20:59;;;;;;;4.05;2.90;;;;;;;13.10;100.00;98220.97;1710000;75;672013;-73
2023/05/27 05:23:29;;;;;;;3.50;3.20;;;;;;;13.15;100.00;98225.03;1701243;75;715874;-72
2023/05/27 05:26:06;;;;;;;5.50;5.00;;;;;;;13.23;100.00;98220.66;1710423;75;676718;-73
2023/05/27 05:28:36;;;;;;;7.75;5.70;;;;;;;13.30;100.00;98225.00;1701873;75;741546;-71
2023/05/27 05:31:07;;;;;;;7.50;6.20;;;;;;;13.45;100.00;98228.47;1710291;75;672958;-71
2023/05/27 05:33:37;;;;;;;8.50;7.15;;;;;;;13.57;100.00;98221.09;1701373;75;743045;-73
2023/05/27 05:36:08;;;;;;;7.00;6.30;;;;;;;13.72;100.00;98226.53;1709995;75;672064;-72
2023/05/27 05:38:39;;;;;;;6.35;5.45;;;;;;;13.78;100.00;98225.34;1700794;75;737601;-70
2023/05/27 05:41:11;;;;;;;5.60;4.80;;;;;;;13.89;100.00;98229.47;1709786;75;776149;-71
2023/05/27 05:43:41;;;;;;;6.00;5.40;;;;;;;13.97;100.00;98225.78;1701259;75;757563;-70
2023/05/27 05:46:12;;;;;;;7.40;6.40;;;;;;;14.21;100.00;98233.03;1709834;75;674411;-70
2023/05/27 05:48:42;;;;;;;7.90;7.10;;;;;;;14.28;100.00;98229.84;1701062;75;765064;-71
2023/05/27 05:51:12;;;;;;;9.70;8.00;;;;;;;14.34;100.00;98238.19;1710103;75;679306;-69
2023/05/27 05:53:42;;;;;;;9.40;8.05;;;;;;;14.39;100.00;98249.25;1699942;75;770221;-69
2023/05/27 05:56:15;;;;;;;9.50;8.00;;;;;;;14.49;100.00;98234.03;1710412;75;680103;-72
2023/05/27 05:58:45;;;;;;;8.70;7.55;;;;;;;14.60;100.00;98236.19;1701610;75;750590;-69
2023/05/27 06:01:15;;;;;;;12.90;9.20;;;;;;;14.60;100.00;98233.41;1709527;75;689564;-69
2023/05/27 06:03:45;;;;;;;8.40;7.35;;;;;;;14.70;100.00;98223.72;1701383;75;749343;-71
2023/05/27 06:06:15;;;;;;;10.35;6.95;;;;;;;14.98;100.00;98236.19;1709777;75;681294;-70
2023/05/27 06:08:45;;;;;;;12.25;10.40;;;;;;;14.96;100.00;98239.44;1701439;75;761170;-69
2023/05/27 06:11:18;;;;;;;11.85;9.05;;;;;;;15.01;100.00;98237.94;1710086;75;672409;-70
2023/05/27 06:13:48;;;;;;;8.75;7.45;;;;;;;15.25;100.00;98234.81;1701233;75;740637;-71
2023/05/27 06:16:19;;;;;;;9.25;7.65;;;;;;;15.28;100.00;98242.13;1710266;75;665893;-71
2023/05/27 06:18:49;;;;;;;10.70;7.45;;;;;;;15.42;100.00;98234.94;1701963;75;738271;-72
2023/05/27 06:21:19;;;;;;;10.45;7.70;;;;;;;15.45;100.00;98242.22;1710079;75;675021;-73
2023/05/27 06:23:49;;;;;;;11.00;7.85;;;;;;;15.51;100.00;98245.75;1701395;75;751545;-71
2023/05/27 06:26:23;;;;;;;10.20;7.90;;;;;;;15.64;100.00;98245.31;1709899;75;695831;-71
2023/05/27 06:28:53;;;;;;;8.70;7.45;;;;;;;15.77;100.00;98245.63;1701178;75;743146;-73
2023/05/27 06:31:23;;;;;;;15.45;8.70;;;;;;;15.80;100.00;98247.38;1709921;75;672394;-70
2023/05/27 06:33:53;;;;;;;10.00;7.75;;;;;;;15.93;100.00;98246.94;1701589;75;752718;-72
2023/05/27 06:36:23;;;;;;;8.50;7.50;;;;;;;16.11;100.00;98243.72;1710420;75;671662;-72
2023/05/27 06:38:54;;;;;;;10.05;7.60;;;;;;;16.19;98.59;98239.22;1701060;75;740615;-69
2023/05/27 06:41:27;;;;;;;7.80;6.70;;;;;;;16.35;96.64;98237.72;1709310;75;680911;-72
2023/05/27 06:43:57;;;;;;;7.85;6.40;;;;;;;16.44;92.74;98247.03;1701297;75;741727;-70
2023/05/27 06:46:27;;;;;;;8.10;6.80;;;;;;;16.51;90.21;98246.53;1709642;75;669740;-71
2023/05/27 06:48:58;;;;;;;8.75;6.50;;;;;;;16.65;88.86;98242.03;1700505;75;742263;-70
2023/05/27 06:51:28;;;;;;;9.65;6.95;;;;;;;16.71;89.17;98237.97;1710025;75;679479;-69
2023/05/27 06:53:58;;;;;;;9.55;6.90;;;;;;;16.95;87.52;98243.03;1699830;75;756443;-70
2023/05/27 06:56:31;;;;;;;9.30;7.00;;;;;;;16.94;83.39;98249.81;1709497;75;671684;-71
2023/05/27 06:59:01;;;;;;;8.95;7.20;;;;;;;16.98;73.02;98238.50;1698901;75;780511;-72
2023/05/27 07:01:32;;;;;;;9.05;6.20;;;;;;;17.14;71.08;98239.72;1708902;75;708728;-73
2023/05/27 07:04:03;;;;;;;9.00;6.20;;;;;;;17.29;68.20;98237.41;1700940;75;755394;-72
2023/05/27 07:06:33;;;;;;;7.60;4.90;;;;;;;17.49;61.25;98233.59;1709993;75;671597;-72
2023/05/27 07:09:03;;;;;;;6.05;4.55;;;;;;;17.60;59.73;98239.06;1701362;75;743071;-71
2023/05/27 07:11:36;;;;;;;5.70;4.50;;;;;;;17.94;60.82;98232.66;1709340;75;669518;-72
2023/05/27 07:14:09;;;;;;;6.05;4.55;;;;;;;17.91;61.29;98239.22;1700662;75;723298;-73
2023/05/27 07:16:39;;;;;;;6.10;4.50;;;;;;;18.18;61.34;98241.06;1709138;75;701237;-71
2023/05/27 07:19:09;;;;;;;8.80;5.40;;;;;;;18.00;56.27;98247.25;1701088;75;743374;-70
2023/05/27 07:21:40;;;;;;;5.60;4.20;;;;;;;18.12;56.71;98245.91;1710044;75;674889;-69
2023/05/27 07:24:11;;;;;;;4.95;3.55;;;;;;;18.33;56.60;98235.19;1700664;75;749535;-71
2023/05/27 07:26:44;;;;;;;4.20;3.30;;;;;;;18.37;56.78;98237.69;1708196;75;714112;-72
2023/05/27 07:29:14;;;;;;;6.45;4.20;;;;;;;18.61;56.95;98242.53;1700757;75;733753;-70
2023/05/27 07:31:44;;;;;;;6.00;3.65;;;;;;;18.74;54.53;98237.16;1709632;75;671381;-71
2023/05/27 07:34:14;;;;;;;7.15;4.45;;;;;;;18.47;55.49;98241.63;1701214;75;761479;-73
2023/05/27 07:36:44;;;;;;;6.30;3.65;;;;;;;18.68;54.37;98239.22;1710131;75;677238;-71
2023/05/27 07:39:15;;;;;;;6.85;4.15;;;;;;;18.73;56.24;98235.63;1701069;75;744411;-70
2023/05/27 07:41:48;;;;;;;6.80;4.00;;;;;;;18.85;55.15;98233.53;1710394;75;677753;-71
2023/05/27 07:44:18;;;;;;;7.00;3.90;;;;;;;19.26;54.17;98233.38;1701118;75;754363;-70
2023/05/27 07:46:48;;;;;;;9.80;5.15;;;;;;;18.94;53.04;98230.44;1710094;75;675210;-71
2023/05/27 07:49:18;;;;;;;6.10;3.80;;;;;;;19.14;51.97;98234.78;1699588;75;730112;-72
2023/05/27 07:51:48;;;;;;;4.80;3.40;;;;;;;19.46;52.50;98237.72;1708447;75;681484;-72
2023/05/27 07:54:19;;;;;;;5.85;4.00;;;;;;;19.37;52.10;98226.97;1699347;75;748687;-71
2023/05/27 07:56:52;;;;;;;5.60;3.50;;;;;;;19.52;51.96;98232.84;1709994;75;675537;-72
2023/05/27 07:59:22;;;;;;;5.20;3.70;;;;;;;19.60;50.37;98230.22;1700467;75;739943;-71
2023/05/27 08:01:52;;;;;;;5.90;3.70;;;;;;;19.75;51.21;98229.81;1710036;75;674068;-71
2023/05/27 08:04:22;;;;;;;7.10;3.70;;;;;;;19.73;50.11;98230.34;1700772;75;742239;-70
2023/05/27 08:06:52;;;;;;;8.15;3.85;;;;;;;19.74;48.99;98219.97;1709583;75;678944;-70
2023/05/27 08:09:22;;;;;;;4.35;3.10;;;;;;;19.54;49.68;98219.19;1700752;75;750458;-70
2023/05/27 08:11:55;;;;;;;8.85;4.85;;;;;;;19.32;51.03;98211.88;1709905;75;673895;-70
2023/05/27 08:14:27;;;;;;;5.65;3.25;;;;;;;19.73;49.58;98215.72;1700955;75;735054;-70
2023/05/27 08:16:57;;;;;;;4.30;3.20;;;;;;;20.14;48.83;98212.59;1709659;75;673463;-70
2023/05/27 08:19:27;;;;;;;7.90;3.00;;;;;;;20.27;48.17;98213.94;1701365;75;739687;-70
2023/05/27 08:21:58;;;;;;;4.75;3.05;;;;;;;20.35;49.04;98207.25;1709755;75;676985;-70
2023/05/27 08:24:30;;;;;;;6.40;2.95;;;;;;;20.61;46.48;98211.38;1701202;75;746317;-71
2023/05/27 08:27:05;;;;;;;6.20;3.45;;;;;;;20.59;46.42;98203.59;1710840;75;673238;-72
2023/05/27 08:29:38;;;;;;;3.40;2.50;;;;;;;20.92;47.41;98209.09;1701737;75;749950;-71
2023/05/27 08:32:08;;;;;;;4.20;2.90;;;;;;;21.14;47.12;98202.38;1710557;75;677703;-71
2023/05/27 08:34:38;;;;;;;4.75;2.80;;;;;;;20.98;44.78;98202.16;1701783;75;757980;-72
2023/05/27 08:37:08;;;;;;;4.40;2.85;;;;;;;20.94;46.32;98206.53;1711167;75;673232;-72
2023/05/27 08:39:41;;;;;;;4.90;2.70;;;;;;;20.80;44.63;98200.19;1702100;75;749844;-70
2023/05/27 08:42:14;;;;;;;3.30;2.40;;;;;;;21.09;45.67;98194.88;1710925;75;669563;-73
2023/05/27 08:44:44;;;;;;;4.90;2.70;;;;;;;21.07;44.83;98201.00;1701897;75;728475;-69
2023/05/27 08:47:16;;;;;;;5.60;2.90;;;;;;;21.22;42.80;98192.84;1711373;75;671811;-71
2023/05/27 08:49:46;;;;;;;4.30;2.85;;;;;;;21.46;42.63;98185.56;1701253;75;757491;-70
2023/05/27 08:52:22;;;;;;;4.70;2.60;;;;;;;21.78;43.23;98185.41;1710726;75;676467;-70
2023/05/27 08:54:53;;;;;;;4.45;2.20;;;;;;;21.69;42.08;98180.28;1701919;75;750011;-68
2023/05/27 08:57:32;;;;;;;4.60;2.80;;;;;;;20.62;40.91;98188.63;1708576;75;776695;-69
2023/05/27 09:00:02;;;;;;;4.30;2.65;;;;;;;20.76;41.16;98189.41;1700787;75;741042;-73
2023/05/27 09:02:35;;;;;;;5.70;2.80;;;;;;;20.63;41.29;98183.78;1708111;75;675901;-69
2023/05/27 09:05:08;;;;;;;6.15;3.10;;;;;;;20.55;41.07;98180.91;1699185;75;748833;-70
2023/05/27 09:07:39;;;;;;;6.80;3.30;;;;;;;20.69;40.40;98173.34;1710405;75;673637;-70
2023/05/27 09:10:11;;;;;;;4.70;2.90;;;;;;;21.31;41.09;98179.75;1701298;75;747830;-70
2023/05/27 09:12:47;;;;;;;6.00;2.80;;;;;;;21.60;41.29;98175.13;1709803;75;670787;-72
2023/05/27 09:15:17;;;;;;;5.35;2.85;;;;;;;22.03;41.78;98179.53;1701515;75;757146;-73
2023/05/27 09:17:49;;;;;;;4.10;2.80;;;;;;;22.05;40.73;98177.69;1709961;75;677240;-70
2023/05/27 09:20:20;;;;;;;4.65;2.50;;;;;;;22.44;39.04;98176.06;1701815;75;742081;-70
2023/05/27 09:22:50;;;;;;;3.20;2.10;;;;;;;22.68;37.90;98174.19;1710533;75;671479;-72
2023/05/27 09:25:20;;;;;;;3.10;2.10;;;;;;;22.71;38.19;98171.06;1700482;75;759905;-69
2023/05/27 09:27:53;;;;;;;4.35;2.15;;;;;;;22.94;38.31;98168.41;1709474;75;680276;-71
2023/05/27 09:30:25;;;;;;;6.50;2.65;;;;;;;22.29;38.24;98176.66;1701772;75;745820;-70
2023/05/27 09:33:06;;;;;;;4.70;2.45;;;;;;;23.30;40.53;98172.56;1709712;75;680520;-70
2023/05/27 09:35:42;;;;;;;5.10;2.55;;;;;;;23.47;40.09;98177.66;1701903;75;738443;-71
2023/05/27 09:38:12;;;;;;;4.95;2.90;;;;;;;23.23;39.35;98171.22;1702635;75;671952;-70
2023/05/27 09:40:42;;;;;;;3.40;2.30;;;;;;;23.46;38.85;98170.59;1710366;75;673383;-72
2023/05/27 09:43:18;;;;;;;7.60;2.70;;;;;;;23.44;38.83;98165.53;1701410;75;681058;-70
2023/05/27 09:45:48;;;;;;;8.90;3.40;;;;;;;22.47;40.36;98163.81;1710154;75;677509;-71
2023/05/27 09:48:23;;;;;;;6.60;3.70;;;;;;;21.92;40.50;98166.59;1701779;75;681431;-74
2023/05/27 09:50:54;;;;;;;5.50;3.00;;;;;;;22.68;41.87;98154.63;1709873;75;678340;-69
2023/05/27 09:53:24;;;;;;;7.40;3.30;;;;;;;22.25;42.03;98158.78;1702712;75;674133;-72
2023/05/27 09:55:56;;;;;;;5.90;2.80;;;;;;;23.49;41.81;98161.09;1710596;75;675327;-70
2023/05/27 09:58:29;;;;;;;4.70;2.70;;;;;;;23.57;39.95;98159.84;1702009;75;682501;-71
2023/05/27 10:01:00;;;;;;;3.90;2.10;;;;;;;23.71;39.69;98160.41;1710135;75;673745;-71
2023/05/27 10:03:33;;;;;;;4.55;2.60;;;;;;;23.89;39.59;98163.50;1702792;75;676220;-70
2023/05/27 10:06:04;;;;;;;3.90;2.60;;;;;;;23.81;39.17;98155.06;1711696;75;675432;-72
2023/05/27 10:08:35;;;;;;;5.80;2.70;;;;;;;23.78;39.07;98156.19;1704225;75;670269;-72
2023/05/27 10:11:05;;;;;;;5.35;3.00;;;;;;;23.85;40.09;98149.13;1712093;75;674816;-73
2023/05/27 10:13:38;;;;;;;4.70;2.90;;;;;;;24.26;39.44;98159.25;1703376;75;673544;-71
2023/05/27 10:16:09;;;;;;;4.00;2.30;;;;;;;24.83;39.60;98152.56;1709849;75;680860;-70
2023/05/27 10:18:52;;;;;;;6.75;3.35;;;;;;;23.54;37.96;98154.59;1701619;75;742504;-71
